sensor_id;sensor_type;location;lat;lon;timestamp;temperature;humidity
67054;SHT31;53960;51.826;5.850;2023-02-01T00:01:37;5.53;82.60
67054;SHT31;53960;51.826;5.850;2023-02-01T00:04:02;5.53;82.74
67054;SHT31;53960;51.826;5.850;2023-02-01T00:06:28;5.52;83.09
67054;SHT31;53960;51.826;5.850;2023-02-01T00:08:54;5.52;83.31
67054;SHT31;53960;51.826;5.850;2023-02-01T00:11:20;5.49;83.36
67054;SHT31;53960;51.826;5.850;2023-02-01T00:13:46;5.49;83.59
67054;SHT31;53960;51.826;5.850;2023-02-01T00:16:17;5.43;83.33
67054;SHT31;53960;51.826;5.850;2023-02-01T00:18:47;5.40;84.00
67054;SHT31;53960;51.826;5.850;2023-02-01T00:21:14;5.42;83.78
67054;SHT31;53960;51.826;5.850;2023-02-01T00:23:40;5.50;84.21
67054;SHT31;53960;51.826;5.850;2023-02-01T00:26:10;5.55;83.64
67054;SHT31;53960;51.826;5.850;2023-02-01T00:28:37;5.63;83.45
67054;SHT31;53960;51.826;5.850;2023-02-01T00:31:03;5.70;83.10
67054;SHT31;53960;51.826;5.850;2023-02-01T00:33:30;5.79;83.48
67054;SHT31;53960;51.826;5.850;2023-02-01T00:36:03;5.73;83.41
67054;SHT31;53960;51.826;5.850;2023-02-01T00:38:29;5.87;83.22
67054;SHT31;53960;51.826;5.850;2023-02-01T00:41:01;5.89;83.45
67054;SHT31;53960;51.826;5.850;2023-02-01T00:43:27;5.80;83.93
67054;SHT31;53960;51.826;5.850;2023-02-01T00:45:52;5.80;83.93
67054;SHT31;53960;51.826;5.850;2023-02-01T00:48:17;5.89;83.81
67054;SHT31;53960;51.826;5.850;2023-02-01T00:50:43;5.89;84.07
67054;SHT31;53960;51.826;5.850;2023-02-01T00:53:09;5.91;83.91
67054;SHT31;53960;51.826;5.850;2023-02-01T00:55:34;5.98;83.58
67054;SHT31;53960;51.826;5.850;2023-02-01T00:58:00;5.96;83.74
67054;SHT31;53960;51.826;5.850;2023-02-01T01:00:25;5.96;83.71
67054;SHT31;53960;51.826;5.850;2023-02-01T01:02:50;5.97;83.58
67054;SHT31;53960;51.826;5.850;2023-02-01T01:05:16;5.94;83.63
67054;SHT31;53960;51.826;5.850;2023-02-01T01:07:41;5.94;83.68
67054;SHT31;53960;51.826;5.850;2023-02-01T01:10:07;5.97;83.71
67054;SHT31;53960;51.826;5.850;2023-02-01T01:12:32;5.96;83.50
67054;SHT31;53960;51.826;5.850;2023-02-01T01:14:57;5.93;83.48
67054;SHT31;53960;51.826;5.850;2023-02-01T01:17:23;5.83;84.05
67054;SHT31;53960;51.826;5.850;2023-02-01T01:19:48;5.86;83.84
67054;SHT31;53960;51.826;5.850;2023-02-01T01:22:13;5.89;83.83
67054;SHT31;53960;51.826;5.850;2023-02-01T01:24:39;5.85;83.83
67054;SHT31;53960;51.826;5.850;2023-02-01T01:27:04;5.91;83.57
67054;SHT31;53960;51.826;5.850;2023-02-01T01:29:29;5.93;83.60
67054;SHT31;53960;51.826;5.850;2023-02-01T01:31:54;5.87;83.58
67054;SHT31;53960;51.826;5.850;2023-02-01T01:34:20;5.80;83.94
67054;SHT31;53960;51.826;5.850;2023-02-01T01:36:45;5.85;83.86
67054;SHT31;53960;51.826;5.850;2023-02-01T01:39:10;5.79;84.10
67054;SHT31;53960;51.826;5.850;2023-02-01T01:41:36;5.81;83.97
67054;SHT31;53960;51.826;5.850;2023-02-01T01:44:05;5.74;84.29
67054;SHT31;53960;51.826;5.850;2023-02-01T01:46:32;5.69;84.61
67054;SHT31;53960;51.826;5.850;2023-02-01T01:49:13;5.70;84.41
67054;SHT31;53960;51.826;5.850;2023-02-01T01:51:51;5.63;84.73
67054;SHT31;53960;51.826;5.850;2023-02-01T01:54:27;5.62;84.89
67054;SHT31;53960;51.826;5.850;2023-02-01T01:56:57;5.66;84.62
67054;SHT31;53960;51.826;5.850;2023-02-01T01:59:25;5.63;84.75
67054;SHT31;53960;51.826;5.850;2023-02-01T02:01:51;5.66;84.57
67054;SHT31;53960;51.826;5.850;2023-02-01T02:04:17;5.60;84.70
67054;SHT31;53960;51.826;5.850;2023-02-01T02:06:51;5.62;84.69
67054;SHT31;53960;51.826;5.850;2023-02-01T02:09:20;5.69;84.50
67054;SHT31;53960;51.826;5.850;2023-02-01T02:11:46;5.62;84.45
67054;SHT31;53960;51.826;5.850;2023-02-01T02:14:14;5.60;84.67
67054;SHT31;53960;51.826;5.850;2023-02-01T02:16:54;5.53;84.92
67054;SHT31;53960;51.826;5.850;2023-02-01T02:28:32;5.56;84.48
67054;SHT31;53960;51.826;5.850;2023-02-01T02:39:36;5.59;84.64
67054;SHT31;53960;51.826;5.850;2023-02-01T02:42:14;5.53;84.93
67054;SHT31;53960;51.826;5.850;2023-02-01T02:45:08;5.53;85.04
67054;SHT31;53960;51.826;5.850;2023-02-01T02:48:29;5.55;85.13
67054;SHT31;53960;51.826;5.850;2023-02-01T02:51:13;5.60;85.09
67054;SHT31;53960;51.826;5.850;2023-02-01T02:54:10;5.65;85.06
67054;SHT31;53960;51.826;5.850;2023-02-01T02:56:56;5.81;84.33
67054;SHT31;53960;51.826;5.850;2023-02-01T02:59:43;5.79;84.76
67054;SHT31;53960;51.826;5.850;2023-02-01T03:02:28;5.77;84.76
67054;SHT31;53960;51.826;5.850;2023-02-01T03:05:13;5.90;84.04
67054;SHT31;53960;51.826;5.850;2023-02-01T03:18:58;5.97;84.19
67054;SHT31;53960;51.826;5.850;2023-02-01T03:21:32;6.00;84.19
67054;SHT31;53960;51.826;5.850;2023-02-01T03:24:06;6.04;83.98
67054;SHT31;53960;51.826;5.850;2023-02-01T03:26:37;6.03;84.25
67054;SHT31;53960;51.826;5.850;2023-02-01T03:29:16;5.98;84.38
67054;SHT31;53960;51.826;5.850;2023-02-01T03:31:42;5.90;84.70
67054;SHT31;53960;51.826;5.850;2023-02-01T03:34:08;5.89;84.91
67054;SHT31;53960;51.826;5.850;2023-02-01T03:36:40;5.87;84.98
67054;SHT31;53960;51.826;5.850;2023-02-01T03:39:19;5.85;85.33
67054;SHT31;53960;51.826;5.850;2023-02-01T03:41:50;5.81;85.38
67054;SHT31;53960;51.826;5.850;2023-02-01T03:46:52;5.83;85.59
67054;SHT31;53960;51.826;5.850;2023-02-01T03:50:03;5.85;85.58
67054;SHT31;53960;51.826;5.850;2023-02-01T03:52:30;5.85;85.66
67054;SHT31;53960;51.826;5.850;2023-02-01T03:54:58;5.77;86.02
67054;SHT31;53960;51.826;5.850;2023-02-01T03:57:29;5.85;85.98
67054;SHT31;53960;51.826;5.850;2023-02-01T04:00:25;5.85;85.88
67054;SHT31;53960;51.826;5.850;2023-02-01T04:02:49;5.80;86.03
67054;SHT31;53960;51.826;5.850;2023-02-01T04:05:15;5.73;86.42
67054;SHT31;53960;51.826;5.850;2023-02-01T04:07:41;5.67;86.58
67054;SHT31;53960;51.826;5.850;2023-02-01T04:10:08;5.67;86.70
67054;SHT31;53960;51.826;5.850;2023-02-01T04:12:34;5.73;86.58
67054;SHT31;53960;51.826;5.850;2023-02-01T04:14:59;5.81;86.38
67054;SHT31;53960;51.826;5.850;2023-02-01T04:17:24;5.83;86.27
67054;SHT31;53960;51.826;5.850;2023-02-01T04:19:49;5.73;86.42
67054;SHT31;53960;51.826;5.850;2023-02-01T04:22:15;5.66;86.97
67054;SHT31;53960;51.826;5.850;2023-02-01T04:24:40;5.59;87.23
67054;SHT31;53960;51.826;5.850;2023-02-01T04:27:05;5.62;87.20
67054;SHT31;53960;51.826;5.850;2023-02-01T04:29:31;5.65;87.16
67054;SHT31;53960;51.826;5.850;2023-02-01T04:31:56;5.67;87.08
67054;SHT31;53960;51.826;5.850;2023-02-01T04:34:21;5.63;87.17
67054;SHT31;53960;51.826;5.850;2023-02-01T04:36:48;5.66;87.08
67054;SHT31;53960;51.826;5.850;2023-02-01T04:39:14;5.66;87.18
67054;SHT31;53960;51.826;5.850;2023-02-01T04:41:39;5.70;87.12
67054;SHT31;53960;51.826;5.850;2023-02-01T04:44:04;5.76;86.95
67054;SHT31;53960;51.826;5.850;2023-02-01T04:46:30;5.81;86.85
67054;SHT31;53960;51.826;5.850;2023-02-01T04:48:55;5.85;86.84
67054;SHT31;53960;51.826;5.850;2023-02-01T04:51:20;5.83;86.77
67054;SHT31;53960;51.826;5.850;2023-02-01T04:53:46;5.85;86.59
67054;SHT31;53960;51.826;5.850;2023-02-01T04:56:12;5.85;86.82
67054;SHT31;53960;51.826;5.850;2023-02-01T04:58:37;5.94;86.46
67054;SHT31;53960;51.826;5.850;2023-02-01T05:01:03;5.91;86.47
67054;SHT31;53960;51.826;5.850;2023-02-01T05:03:30;5.87;86.68
67054;SHT31;53960;51.826;5.850;2023-02-01T05:05:55;5.77;87.24
67054;SHT31;53960;51.826;5.850;2023-02-01T05:08:21;5.81;87.29
67054;SHT31;53960;51.826;5.850;2023-02-01T05:10:47;5.85;86.98
67054;SHT31;53960;51.826;5.850;2023-02-01T05:13:13;5.90;86.71
67054;SHT31;53960;51.826;5.850;2023-02-01T05:15:57;5.91;86.91
67054;SHT31;53960;51.826;5.850;2023-02-01T05:18:22;5.94;86.78
67054;SHT31;53960;51.826;5.850;2023-02-01T05:20:47;6.01;86.57
67054;SHT31;53960;51.826;5.850;2023-02-01T05:23:12;6.08;86.08
67054;SHT31;53960;51.826;5.850;2023-02-01T05:25:38;6.00;86.50
67054;SHT31;53960;51.826;5.850;2023-02-01T05:28:03;6.01;86.52
67054;SHT31;53960;51.826;5.850;2023-02-01T05:30:28;5.94;86.53
67054;SHT31;53960;51.826;5.850;2023-02-01T05:32:54;6.01;86.61
67054;SHT31;53960;51.826;5.850;2023-02-01T05:35:20;6.07;86.26
67054;SHT31;53960;51.826;5.850;2023-02-01T05:37:45;6.14;86.12
67054;SHT31;53960;51.826;5.850;2023-02-01T05:40:11;6.08;86.07
67054;SHT31;53960;51.826;5.850;2023-02-01T05:42:36;6.08;86.36
67054;SHT31;53960;51.826;5.850;2023-02-01T05:45:02;6.14;85.82
67054;SHT31;53960;51.826;5.850;2023-02-01T05:47:30;6.13;85.88
67054;SHT31;53960;51.826;5.850;2023-02-01T05:49:56;6.18;85.69
67054;SHT31;53960;51.826;5.850;2023-02-01T05:52:21;6.16;85.72
67054;SHT31;53960;51.826;5.850;2023-02-01T05:54:46;6.08;86.03
67054;SHT31;53960;51.826;5.850;2023-02-01T05:57:12;6.16;85.70
67054;SHT31;53960;51.826;5.850;2023-02-01T05:59:38;6.17;85.65
67054;SHT31;53960;51.826;5.850;2023-02-01T06:02:07;6.14;85.66
67054;SHT31;53960;51.826;5.850;2023-02-01T06:04:32;6.18;85.41
67054;SHT31;53960;51.826;5.850;2023-02-01T06:06:57;6.13;85.89
67054;SHT31;53960;51.826;5.850;2023-02-01T06:09:23;6.21;85.15
67054;SHT31;53960;51.826;5.850;2023-02-01T06:11:48;6.14;85.37
67054;SHT31;53960;51.826;5.850;2023-02-01T06:14:13;6.10;85.70
67054;SHT31;53960;51.826;5.850;2023-02-01T06:16:39;6.16;85.41
67054;SHT31;53960;51.826;5.850;2023-02-01T06:19:04;6.16;85.56
67054;SHT31;53960;51.826;5.850;2023-02-01T06:21:29;6.20;85.29
67054;SHT31;53960;51.826;5.850;2023-02-01T06:23:55;6.18;85.37
67054;SHT31;53960;51.826;5.850;2023-02-01T06:26:22;6.25;85.25
67054;SHT31;53960;51.826;5.850;2023-02-01T06:28:49;6.22;85.24
67054;SHT31;53960;51.826;5.850;2023-02-01T06:31:14;6.22;85.20
67054;SHT31;53960;51.826;5.850;2023-02-01T06:33:40;6.21;85.43
67054;SHT31;53960;51.826;5.850;2023-02-01T06:36:07;6.18;85.49
67054;SHT31;53960;51.826;5.850;2023-02-01T06:38:32;6.24;85.20
67054;SHT31;53960;51.826;5.850;2023-02-01T06:41:02;6.35;84.76
67054;SHT31;53960;51.826;5.850;2023-02-01T06:43:27;6.29;85.02
67054;SHT31;53960;51.826;5.850;2023-02-01T06:45:54;6.32;85.02
67054;SHT31;53960;51.826;5.850;2023-02-01T06:48:23;6.38;84.85
67054;SHT31;53960;51.826;5.850;2023-02-01T06:50:49;6.35;84.85
67054;SHT31;53960;51.826;5.850;2023-02-01T06:53:14;6.32;85.19
67054;SHT31;53960;51.826;5.850;2023-02-01T06:55:39;6.27;85.50
67054;SHT31;53960;51.826;5.850;2023-02-01T06:58:04;6.28;85.46
67054;SHT31;53960;51.826;5.850;2023-02-01T07:00:30;6.27;85.37
67054;SHT31;53960;51.826;5.850;2023-02-01T07:02:57;6.22;85.92
67054;SHT31;53960;51.826;5.850;2023-02-01T07:05:23;6.21;85.90
67054;SHT31;53960;51.826;5.850;2023-02-01T07:07:48;6.22;85.98
67054;SHT31;53960;51.826;5.850;2023-02-01T07:10:13;6.25;85.85
67054;SHT31;53960;51.826;5.850;2023-02-01T07:12:39;6.27;86.01
67054;SHT31;53960;51.826;5.850;2023-02-01T07:15:05;6.35;85.55
67054;SHT31;53960;51.826;5.850;2023-02-01T07:17:31;6.35;85.44
67054;SHT31;53960;51.826;5.850;2023-02-01T07:19:57;6.35;85.68
67054;SHT31;53960;51.826;5.850;2023-02-01T07:22:25;6.35;85.90
67054;SHT31;53960;51.826;5.850;2023-02-01T07:24:50;6.39;85.61
67054;SHT31;53960;51.826;5.850;2023-02-01T07:27:15;6.41;85.63
67054;SHT31;53960;51.826;5.850;2023-02-01T07:29:40;6.37;85.56
67054;SHT31;53960;51.826;5.850;2023-02-01T07:32:06;6.35;86.03
67054;SHT31;53960;51.826;5.850;2023-02-01T07:34:31;6.38;85.77
67054;SHT31;53960;51.826;5.850;2023-02-01T07:36:57;6.38;85.67
67054;SHT31;53960;51.826;5.850;2023-02-01T07:39:23;6.46;85.48
67054;SHT31;53960;51.826;5.850;2023-02-01T07:41:48;6.39;85.83
67054;SHT31;53960;51.826;5.850;2023-02-01T07:44:14;6.34;85.77
67054;SHT31;53960;51.826;5.850;2023-02-01T07:46:39;6.25;86.17
67054;SHT31;53960;51.826;5.850;2023-02-01T07:49:05;6.25;86.27
67054;SHT31;53960;51.826;5.850;2023-02-01T07:51:30;6.24;86.27
67054;SHT31;53960;51.826;5.850;2023-02-01T07:53:56;6.24;86.31
67054;SHT31;53960;51.826;5.850;2023-02-01T07:56:22;6.20;86.63
67054;SHT31;53960;51.826;5.850;2023-02-01T07:58:51;6.27;86.33
67054;SHT31;53960;51.826;5.850;2023-02-01T08:01:19;6.29;86.27
67054;SHT31;53960;51.826;5.850;2023-02-01T08:03:57;6.27;86.31
67054;SHT31;53960;51.826;5.850;2023-02-01T08:06:27;6.35;86.06
67054;SHT31;53960;51.826;5.850;2023-02-01T08:08:53;6.31;86.19
67054;SHT31;53960;51.826;5.850;2023-02-01T08:11:20;6.29;86.28
67054;SHT31;53960;51.826;5.850;2023-02-01T08:13:45;6.31;85.94
67054;SHT31;53960;51.826;5.850;2023-02-01T08:16:14;6.31;85.89
67054;SHT31;53960;51.826;5.850;2023-02-01T08:18:40;6.34;85.89
67054;SHT31;53960;51.826;5.850;2023-02-01T08:21:10;6.34;86.01
67054;SHT31;53960;51.826;5.850;2023-02-01T08:23:37;6.31;86.02
67054;SHT31;53960;51.826;5.850;2023-02-01T08:28:39;6.28;86.24
67054;SHT31;53960;51.826;5.850;2023-02-01T08:31:09;6.29;86.11
67054;SHT31;53960;51.826;5.850;2023-02-01T08:33:35;6.34;85.93
67054;SHT31;53960;51.826;5.850;2023-02-01T08:36:03;6.22;86.30
67054;SHT31;53960;51.826;5.850;2023-02-01T08:38:29;6.22;86.40
67054;SHT31;53960;51.826;5.850;2023-02-01T08:40:54;6.24;86.54
67054;SHT31;53960;51.826;5.850;2023-02-01T08:43:19;6.14;86.81
67054;SHT31;53960;51.826;5.850;2023-02-01T08:45:45;6.13;86.92
67054;SHT31;53960;51.826;5.850;2023-02-01T08:48:11;6.18;86.83
67054;SHT31;53960;51.826;5.850;2023-02-01T08:50:36;6.08;87.24
67054;SHT31;53960;51.826;5.850;2023-02-01T08:53:01;6.11;87.35
67054;SHT31;53960;51.826;5.850;2023-02-01T08:55:27;6.16;87.24
67054;SHT31;53960;51.826;5.850;2023-02-01T08:57:53;6.14;87.39
67054;SHT31;53960;51.826;5.850;2023-02-01T09:00:18;6.22;87.23
67054;SHT31;53960;51.826;5.850;2023-02-01T09:02:44;6.20;87.41
67054;SHT31;53960;51.826;5.850;2023-02-01T09:05:10;6.27;87.33
67054;SHT31;53960;51.826;5.850;2023-02-01T09:07:36;6.27;87.28
67054;SHT31;53960;51.826;5.850;2023-02-01T09:10:02;6.32;87.17
67054;SHT31;53960;51.826;5.850;2023-02-01T09:12:28;6.37;86.83
67054;SHT31;53960;51.826;5.850;2023-02-01T09:14:55;6.38;87.22
67054;SHT31;53960;51.826;5.850;2023-02-01T09:17:21;6.58;86.48
67054;SHT31;53960;51.826;5.850;2023-02-01T09:19:46;6.55;86.37
67054;SHT31;53960;51.826;5.850;2023-02-01T09:22:11;6.61;86.35
67054;SHT31;53960;51.826;5.850;2023-02-01T09:24:37;6.61;86.18
67054;SHT31;53960;51.826;5.850;2023-02-01T09:27:03;6.62;86.21
67054;SHT31;53960;51.826;5.850;2023-02-01T09:29:28;6.59;86.43
67054;SHT31;53960;51.826;5.850;2023-02-01T09:31:53;6.58;86.51
67054;SHT31;53960;51.826;5.850;2023-02-01T09:34:19;6.73;86.18
67054;SHT31;53960;51.826;5.850;2023-02-01T09:36:44;6.79;86.13
67054;SHT31;53960;51.826;5.850;2023-02-01T09:39:09;6.82;86.00
67054;SHT31;53960;51.826;5.850;2023-02-01T09:41:43;6.82;85.69
67054;SHT31;53960;51.826;5.850;2023-02-01T09:44:32;6.87;85.60
67054;SHT31;53960;51.826;5.850;2023-02-01T09:47:00;6.89;85.57
67054;SHT31;53960;51.826;5.850;2023-02-01T09:49:32;7.00;84.62
67054;SHT31;53960;51.826;5.850;2023-02-01T09:52:01;7.03;84.82
67054;SHT31;53960;51.826;5.850;2023-02-01T09:54:42;7.14;84.59
67054;SHT31;53960;51.826;5.850;2023-02-01T09:57:28;7.20;84.25
67054;SHT31;53960;51.826;5.850;2023-02-01T10:00:01;7.27;83.90
67054;SHT31;53960;51.826;5.850;2023-02-01T10:02:28;7.32;83.85
67054;SHT31;53960;51.826;5.850;2023-02-01T10:04:58;7.27;83.86
67054;SHT31;53960;51.826;5.850;2023-02-01T10:10:10;7.45;83.24
67054;SHT31;53960;51.826;5.850;2023-02-01T10:16:02;7.48;83.12
67054;SHT31;53960;51.826;5.850;2023-02-01T10:21:28;7.37;83.49
67054;SHT31;53960;51.826;5.850;2023-02-01T10:26:40;7.35;83.46
67054;SHT31;53960;51.826;5.850;2023-02-01T10:29:20;7.31;83.30
67054;SHT31;53960;51.826;5.850;2023-02-01T10:31:48;7.37;83.27
67054;SHT31;53960;51.826;5.850;2023-02-01T10:34:21;7.37;83.56
67054;SHT31;53960;51.826;5.850;2023-02-01T10:36:59;7.37;83.21
67054;SHT31;53960;51.826;5.850;2023-02-01T10:39:25;7.41;83.19
67054;SHT31;53960;51.826;5.850;2023-02-01T10:41:50;7.45;84.02
67054;SHT31;53960;51.826;5.850;2023-02-01T10:44:20;7.44;83.88
67054;SHT31;53960;51.826;5.850;2023-02-01T10:46:48;7.32;84.47
67054;SHT31;53960;51.826;5.850;2023-02-01T10:49:20;7.34;84.15
67054;SHT31;53960;51.826;5.850;2023-02-01T10:51:58;7.32;84.64
67054;SHT31;53960;51.826;5.850;2023-02-01T10:54:34;7.30;85.73
67054;SHT31;53960;51.826;5.850;2023-02-01T10:57:00;7.27;86.50
67054;SHT31;53960;51.826;5.850;2023-02-01T10:59:28;7.17;86.36
67054;SHT31;53960;51.826;5.850;2023-02-01T11:01:59;7.14;86.59
67054;SHT31;53960;51.826;5.850;2023-02-01T11:04:26;7.11;86.58
67054;SHT31;53960;51.826;5.850;2023-02-01T11:07:12;7.13;86.76
67054;SHT31;53960;51.826;5.850;2023-02-01T11:09:39;7.08;86.79
67054;SHT31;53960;51.826;5.850;2023-02-01T11:12:05;7.08;86.31
67054;SHT31;53960;51.826;5.850;2023-02-01T11:14:40;7.06;86.70
67054;SHT31;53960;51.826;5.850;2023-02-01T11:19:47;7.14;85.68
67054;SHT31;53960;51.826;5.850;2023-02-01T11:22:20;7.13;86.19
67054;SHT31;53960;51.826;5.850;2023-02-01T11:24:46;7.17;86.02
67054;SHT31;53960;51.826;5.850;2023-02-01T11:27:17;7.13;86.72
67054;SHT31;53960;51.826;5.850;2023-02-01T11:29:48;7.20;86.27
67054;SHT31;53960;51.826;5.850;2023-02-01T11:32:17;7.23;85.82
67054;SHT31;53960;51.826;5.850;2023-02-01T11:34:47;7.23;85.66
67054;SHT31;53960;51.826;5.850;2023-02-01T11:37:21;7.23;85.57
67054;SHT31;53960;51.826;5.850;2023-02-01T11:40:22;7.30;84.83
67054;SHT31;53960;51.826;5.850;2023-02-01T11:43:15;7.28;84.98
67054;SHT31;53960;51.826;5.850;2023-02-01T11:45:38;7.17;85.68
67054;SHT31;53960;51.826;5.850;2023-02-01T11:48:09;7.24;86.10
67054;SHT31;53960;51.826;5.850;2023-02-01T11:50:49;7.23;86.99
67054;SHT31;53960;51.826;5.850;2023-02-01T11:53:29;7.21;87.08
67054;SHT31;53960;51.826;5.850;2023-02-01T11:56:25;7.16;87.94
67054;SHT31;53960;51.826;5.850;2023-02-01T12:10:20;7.01;88.82
67054;SHT31;53960;51.826;5.850;2023-02-01T12:15:26;7.04;88.98
67054;SHT31;53960;51.826;5.850;2023-02-01T12:21:03;7.03;88.38
67054;SHT31;53960;51.826;5.850;2023-02-01T12:24:41;7.10;88.92
67054;SHT31;53960;51.826;5.850;2023-02-01T12:32:24;7.18;87.94
67054;SHT31;53960;51.826;5.850;2023-02-01T12:43:18;7.41;86.63
67054;SHT31;53960;51.826;5.850;2023-02-01T12:45:58;7.37;86.78
67054;SHT31;53960;51.826;5.850;2023-02-01T12:48:42;7.35;86.31
67054;SHT31;53960;51.826;5.850;2023-02-01T12:51:18;7.45;86.32
67054;SHT31;53960;51.826;5.850;2023-02-01T12:56:14;7.45;86.32
67054;SHT31;53960;51.826;5.850;2023-02-01T12:58:48;7.48;85.98
67054;SHT31;53960;51.826;5.850;2023-02-01T13:04:11;7.43;86.51
67054;SHT31;53960;51.826;5.850;2023-02-01T13:06:42;7.45;85.72
67054;SHT31;53960;51.826;5.850;2023-02-01T13:11:45;7.48;85.23
67054;SHT31;53960;51.826;5.850;2023-02-01T13:14:35;7.52;85.51
67054;SHT31;53960;51.826;5.850;2023-02-01T13:17:05;7.52;85.35
67054;SHT31;53960;51.826;5.850;2023-02-01T13:19:53;7.55;85.61
67054;SHT31;53960;51.826;5.850;2023-02-01T13:22:23;7.62;85.17
67054;SHT31;53960;51.826;5.850;2023-02-01T13:25:00;7.65;85.30
67054;SHT31;53960;51.826;5.850;2023-02-01T13:27:30;7.61;85.34
67054;SHT31;53960;51.826;5.850;2023-02-01T13:32:55;7.69;84.44
67054;SHT31;53960;51.826;5.850;2023-02-01T13:38:08;7.72;84.62
67054;SHT31;53960;51.826;5.850;2023-02-01T13:43:19;7.81;84.48
67054;SHT31;53960;51.826;5.850;2023-02-01T13:45:49;7.82;84.24
67054;SHT31;53960;51.826;5.850;2023-02-01T13:48:29;7.86;83.72
67054;SHT31;53960;51.826;5.850;2023-02-01T13:50:57;7.82;83.95
67054;SHT31;53960;51.826;5.850;2023-02-01T13:53:37;7.85;83.52
67054;SHT31;53960;51.826;5.850;2023-02-01T13:56:15;7.85;83.86
67054;SHT31;53960;51.826;5.850;2023-02-01T13:58:43;7.86;83.46
67054;SHT31;53960;51.826;5.850;2023-02-01T14:03:57;7.99;82.20
67054;SHT31;53960;51.826;5.850;2023-02-01T14:11:38;8.02;81.86
67054;SHT31;53960;51.826;5.850;2023-02-01T14:16:42;7.99;82.18
67054;SHT31;53960;51.826;5.850;2023-02-01T14:19:25;7.96;82.79
67054;SHT31;53960;51.826;5.850;2023-02-01T14:21:53;7.99;82.10
67054;SHT31;53960;51.826;5.850;2023-02-01T14:24:30;8.03;82.34
67054;SHT31;53960;51.826;5.850;2023-02-01T14:27:01;8.00;82.10
67054;SHT31;53960;51.826;5.850;2023-02-01T14:29:34;8.07;82.05
67054;SHT31;53960;51.826;5.850;2023-02-01T14:32:01;7.97;82.04
67054;SHT31;53960;51.826;5.850;2023-02-01T14:55:55;8.03;81.83
67054;SHT31;53960;51.826;5.850;2023-02-01T14:58:41;8.02;82.24
67054;SHT31;53960;51.826;5.850;2023-02-01T15:06:31;8.07;82.01
67054;SHT31;53960;51.826;5.850;2023-02-01T15:14:26;7.97;82.49
67054;SHT31;53960;51.826;5.850;2023-02-01T15:16:51;8.02;82.54
67054;SHT31;53960;51.826;5.850;2023-02-01T15:19:22;8.00;82.54
67054;SHT31;53960;51.826;5.850;2023-02-01T15:21:50;7.97;82.73
67054;SHT31;53960;51.826;5.850;2023-02-01T15:24:21;8.00;82.91
67054;SHT31;53960;51.826;5.850;2023-02-01T15:26:47;7.95;83.75
67054;SHT31;53960;51.826;5.850;2023-02-01T15:29:13;7.93;84.35
67054;SHT31;53960;51.826;5.850;2023-02-01T15:31:42;7.83;85.08
67054;SHT31;53960;51.826;5.850;2023-02-01T15:34:08;7.74;85.44
67054;SHT31;53960;51.826;5.850;2023-02-01T15:36:34;7.78;85.18
67054;SHT31;53960;51.826;5.850;2023-02-01T15:42:11;7.76;85.34
67054;SHT31;53960;51.826;5.850;2023-02-01T15:44:44;7.74;85.64
67054;SHT31;53960;51.826;5.850;2023-02-01T15:47:24;7.69;85.82
67054;SHT31;53960;51.826;5.850;2023-02-01T15:49:57;7.81;85.41
67054;SHT31;53960;51.826;5.850;2023-02-01T15:52:26;7.81;85.67
67054;SHT31;53960;51.826;5.850;2023-02-01T15:54:58;7.74;85.99
67054;SHT31;53960;51.826;5.850;2023-02-01T15:57:31;7.75;85.79
67054;SHT31;53960;51.826;5.850;2023-02-01T16:00:00;7.74;85.47
67054;SHT31;53960;51.826;5.850;2023-02-01T16:02:32;7.78;85.28
67054;SHT31;53960;51.826;5.850;2023-02-01T16:04:58;7.75;85.37
67054;SHT31;53960;51.826;5.850;2023-02-01T16:07:29;7.76;85.14
67054;SHT31;53960;51.826;5.850;2023-02-01T16:09:58;7.81;84.91
67054;SHT31;53960;51.826;5.850;2023-02-01T16:12:30;7.76;85.22
67054;SHT31;53960;51.826;5.850;2023-02-01T16:14:56;7.75;85.22
67054;SHT31;53960;51.826;5.850;2023-02-01T16:17:21;7.85;84.84
67054;SHT31;53960;51.826;5.850;2023-02-01T16:19:46;7.83;84.65
67054;SHT31;53960;51.826;5.850;2023-02-01T16:22:12;7.79;84.66
67054;SHT31;53960;51.826;5.850;2023-02-01T16:24:37;7.82;84.70
67054;SHT31;53960;51.826;5.850;2023-02-01T16:27:02;7.81;85.06
67054;SHT31;53960;51.826;5.850;2023-02-01T16:29:28;7.89;84.42
67054;SHT31;53960;51.826;5.850;2023-02-01T16:31:53;7.89;84.35
67054;SHT31;53960;51.826;5.850;2023-02-01T16:34:19;7.93;84.01
67054;SHT31;53960;51.826;5.850;2023-02-01T16:36:48;7.93;84.11
67054;SHT31;53960;51.826;5.850;2023-02-01T16:39:18;7.88;84.20
67054;SHT31;53960;51.826;5.850;2023-02-01T16:41:43;7.86;84.48
67054;SHT31;53960;51.826;5.850;2023-02-01T16:44:10;7.93;84.04
67054;SHT31;53960;51.826;5.850;2023-02-01T16:46:39;7.85;84.57
67054;SHT31;53960;51.826;5.850;2023-02-01T16:49:05;7.83;84.87
67054;SHT31;53960;51.826;5.850;2023-02-01T16:51:32;7.79;84.99
67054;SHT31;53960;51.826;5.850;2023-02-01T16:54:01;7.86;84.92
67054;SHT31;53960;51.826;5.850;2023-02-01T16:56:32;7.85;85.01
67054;SHT31;53960;51.826;5.850;2023-02-01T16:58:58;7.89;85.24
67054;SHT31;53960;51.826;5.850;2023-02-01T17:01:23;7.83;85.36
67054;SHT31;53960;51.826;5.850;2023-02-01T17:03:49;7.76;85.56
67054;SHT31;53960;51.826;5.850;2023-02-01T17:06:17;7.78;85.63
67054;SHT31;53960;51.826;5.850;2023-02-01T17:08:50;7.81;85.61
67054;SHT31;53960;51.826;5.850;2023-02-01T17:11:16;7.79;85.93
67054;SHT31;53960;51.826;5.850;2023-02-01T17:13:42;7.82;86.13
67054;SHT31;53960;51.826;5.850;2023-02-01T17:18:46;7.78;86.09
67054;SHT31;53960;51.826;5.850;2023-02-01T17:21:14;7.71;86.34
67054;SHT31;53960;51.826;5.850;2023-02-01T17:23:39;7.74;86.36
67054;SHT31;53960;51.826;5.850;2023-02-01T17:26:09;7.75;86.29
67054;SHT31;53960;51.826;5.850;2023-02-01T17:28:34;7.74;86.43
67054;SHT31;53960;51.826;5.850;2023-02-01T17:31:00;7.64;86.78
67054;SHT31;53960;51.826;5.850;2023-02-01T17:33:29;7.69;86.61
67054;SHT31;53960;51.826;5.850;2023-02-01T17:35:56;7.68;87.06
67054;SHT31;53960;51.826;5.850;2023-02-01T17:38:23;7.69;86.79
67054;SHT31;53960;51.826;5.850;2023-02-01T17:40:48;7.75;86.78
67054;SHT31;53960;51.826;5.850;2023-02-01T17:43:15;7.72;86.54
67054;SHT31;53960;51.826;5.850;2023-02-01T17:45:45;7.78;85.96
67054;SHT31;53960;51.826;5.850;2023-02-01T17:48:15;7.86;85.94
67054;SHT31;53960;51.826;5.850;2023-02-01T17:50:41;7.78;86.25
67054;SHT31;53960;51.826;5.850;2023-02-01T17:53:09;7.72;86.47
67054;SHT31;53960;51.826;5.850;2023-02-01T17:55:37;7.74;86.41
67054;SHT31;53960;51.826;5.850;2023-02-01T17:58:04;7.69;86.48
67054;SHT31;53960;51.826;5.850;2023-02-01T18:00:30;7.68;86.40
67054;SHT31;53960;51.826;5.850;2023-02-01T18:02:55;7.79;86.04
67054;SHT31;53960;51.826;5.850;2023-02-01T18:05:28;7.82;86.04
67054;SHT31;53960;51.826;5.850;2023-02-01T18:07:57;7.79;86.24
67054;SHT31;53960;51.826;5.850;2023-02-01T18:10:22;7.79;86.32
67054;SHT31;53960;51.826;5.850;2023-02-01T18:12:47;7.76;86.31
67054;SHT31;53960;51.826;5.850;2023-02-01T18:15:19;7.78;86.41
67054;SHT31;53960;51.826;5.850;2023-02-01T18:17:45;7.85;86.02
67054;SHT31;53960;51.826;5.850;2023-02-01T18:20:15;7.79;86.29
67054;SHT31;53960;51.826;5.850;2023-02-01T18:22:42;7.71;86.69